Sitka Rocky Gutierrez Airport Sitka US
ICAO: PASI
IATA:
Category: Medium
Scheduled Services:

Elevation: 21 ft
TransAlt. 18000 ft.

Airport Communications:
ATIS:135.9
ANCHORAGE CNTR:126.1
CTAF:123.6
RDO:123.6
TWEB:113.8
SITKA AIR:34.5
UNICOM:122.95

PASI Zoom In..

If you have problems with the map follow the link
https://www.worldairports.se/pages/airport.php?
ICAO=PASI

Runways:

(A) RW 11 length 6500 ft width 150 ft
---- / hdg 116

(B) RW 29 length 6500 ft width 150 ft
---- / hdg 296

Location; PASI
Day. 06 / Time. 02.40 Zulu
* Altimeter: 29.91
* Temperature: 05° c. 41°f.
* Wind from: 220° Speed 20 kn with Gusts up to 28 kn.
Dewpoint: 02° c.
Visibility: 3 Statute Miles.
Clouds: Few 1300 ft.
Clouds: Broken 2100 ft.
Clouds: Overcast 3600 ft.

PASI 060240Z 22020G28KT 3SM PLRA FEW013 BKN021 OVC036 05/02 A2991 RMK AO2 PK WND 22029/0215 RAE18B26PLB18 P0010 T00500022


Wind From 220°
Speed 20 kn.

 
 
jpsmedia worldairports.se 2019   terms of use